Time;durP1;ratioP1;P1;durP2;ratioP2;P2;SDS_P1;SDS_P2;PMS_P1;PMS_P2;Temp;Humidity;BMP_temperature;BMP_pressure;BME280_temperature;BME280_humidity;BME280_pressure;Samples;Min_cycle;Max_cycle;Signal;HPM_P1;HPM_P2
2021/08/24 00:01:18;;;;;;;10.63;8.17;;;19.90;99.90;;;;;;5117035;28;20201;-64
2021/08/24 00:03:44;;;;;;;11.63;8.27;;;19.90;99.90;;;;;;5117647;28;20268;-65
2021/08/24 00:06:11;;;;;;;10.77;8.33;;;19.90;99.90;;;;;;5117036;28;20671;-64
2021/08/24 00:08:40;;;;;;;9.23;8.30;;;19.90;99.90;;;;;;5150260;27;20786;-64
2021/08/24 00:11:06;;;;;;;9.83;7.70;;;20.00;99.90;;;;;;5150178;27;21017;-64
2021/08/24 00:13:32;;;;;;;9.77;7.93;;;20.00;99.90;;;;;;5117453;28;20416;-65
2021/08/24 00:15:58;;;;;;;9.70;8.17;;;20.00;99.90;;;;;;5116816;28;20417;-64
2021/08/24 00:18:24;;;;;;;11.43;8.10;;;20.00;99.90;;;;;;5117394;28;20456;-65
2021/08/24 00:20:52;;;;;;;12.93;8.50;;;20.00;99.90;;;;;;5116669;28;20475;-64
2021/08/24 00:23:20;;;;;;;12.77;8.80;;;20.10;99.90;;;;;;5115455;28;20463;-64
2021/08/24 00:25:48;;;;;;;10.73;8.23;;;20.10;99.90;;;;;;5115199;28;20468;-65
2021/08/24 00:28:14;;;;;;;11.20;8.10;;;20.10;99.90;;;;;;5117085;28;20423;-64
2021/08/24 00:30:39;;;;;;;10.27;7.90;;;20.10;99.90;;;;;;5149742;27;20953;-64
2021/08/24 00:33:06;;;;;;;9.43;7.60;;;20.00;99.90;;;;;;5116960;28;20173;-64
2021/08/24 00:35:35;;;;;;;10.10;7.60;;;20.00;99.90;;;;;;5115070;28;20547;-65
2021/08/24 00:38:00;;;;;;;15.10;9.00;;;19.90;99.90;;;;;;5116840;28;20531;-65
2021/08/24 00:40:26;;;;;;;12.03;8.00;;;19.90;99.90;;;;;;5149327;27;20504;-64
2021/08/24 00:42:52;;;;;;;11.93;7.70;;;20.00;99.90;;;;;;5116883;28;20517;-64
2021/08/24 00:45:17;;;;;;;12.53;8.20;;;19.90;99.90;;;;;;5116335;28;20264;-64
2021/08/24 00:47:47;;;;;;;12.60;9.17;;;19.90;99.90;;;;;;5116326;28;20177;-64
2021/08/24 00:50:33;;;;;;;10.67;8.73;;;19.90;99.90;;;;;;5114885;28;20246;-65
2021/08/24 00:53:10;;;;;;;11.60;8.90;;;19.90;99.90;;;;;;5116680;28;20406;-64
2021/08/24 00:55:40;;;;;;;11.20;8.40;;;19.90;99.90;;;;;;5116235;28;20434;-66
2021/08/24 00:58:10;;;;;;;10.90;8.77;;;19.90;99.90;;;;;;5149226;27;20450;-65
2021/08/24 01:00:37;;;;;;;13.20;9.10;;;20.00;99.90;;;;;;5115993;28;20420;-64
2021/08/24 01:03:08;;;;;;;13.00;9.13;;;20.00;99.90;;;;;;5116275;28;20416;-64
2021/08/24 01:05:36;;;;;;;11.80;9.53;;;20.00;99.90;;;;;;5115113;28;20443;-65
2021/08/24 01:08:09;;;;;;;10.13;7.67;;;20.00;99.90;;;;;;5116298;28;20414;-64
2021/08/24 01:10:39;;;;;;;12.07;9.53;;;20.00;99.90;;;;;;5114456;28;20813;-64
2021/08/24 01:13:34;;;;;;;11.47;7.80;;;20.00;99.90;;;;;;5116286;28;20774;-65
2021/08/24 01:16:24;;;;;;;10.90;8.17;;;20.00;99.90;;;;;;5115801;28;20425;-64
2021/08/24 01:19:13;;;;;;;13.23;8.83;;;20.00;99.90;;;;;;5114481;28;20422;-65
2021/08/24 01:22:11;;;;;;;12.37;9.53;;;20.00;99.90;;;;;;5148653;27;20549;-64
2021/08/24 01:24:49;;;;;;;11.10;7.50;;;20.00;99.90;;;;;;5115411;28;20810;-65
2021/08/24 01:27:27;;;;;;;11.27;8.53;;;19.90;99.90;;;;;;5115462;28;20821;-64
2021/08/24 01:30:14;;;;;;;9.50;7.50;;;19.90;99.90;;;;;;5115471;28;20420;-65
2021/08/24 01:32:52;;;;;;;11.40;7.80;;;19.90;99.90;;;;;;5114363;28;20425;-64
2021/08/24 01:35:44;;;;;;;9.20;8.17;;;19.90;99.90;;;;;;5115419;28;20930;-64
2021/08/24 01:38:21;;;;;;;10.53;7.63;;;19.90;99.90;;;;;;5148738;27;20432;-64
2021/08/24 01:41:00;;;;;;;9.43;7.63;;;19.90;99.90;;;;;;5115164;28;20446;-65
2021/08/24 01:43:36;;;;;;;9.37;7.80;;;19.90;99.90;;;;;;5115772;28;20430;-65
2021/08/24 01:46:16;;;;;;;11.30;7.70;;;19.90;99.90;;;;;;5115135;28;20408;-64
2021/08/24 01:48:50;;;;;;;12.13;8.53;;;19.90;99.90;;;;;;5115887;28;20799;-64
2021/08/24 01:51:22;;;;;;;12.13;8.87;;;19.90;99.90;;;;;;5148176;27;20434;-64
2021/08/24 01:53:56;;;;;;;12.20;9.20;;;19.90;99.90;;;;;;5114024;28;20421;-65
2021/08/24 01:56:28;;;;;;;9.30;7.60;;;19.90;99.90;;;;;;5115085;28;20422;-65
2021/08/24 01:59:06;;;;;;;11.90;8.63;;;19.90;99.90;;;;;;5114922;28;20816;-64
2021/08/24 02:01:38;;;;;;;9.83;7.97;;;19.90;99.90;;;;;;5114552;28;20529;-65
2021/08/24 02:04:12;;;;;;;10.20;8.10;;;19.80;99.90;;;;;;5114822;28;20387;-65
2021/08/24 02:06:42;;;;;;;11.60;8.47;;;19.80;99.90;;;;;;5115016;28;20397;-64
2021/08/24 02:09:16;;;;;;;10.70;7.87;;;19.80;99.90;;;;;;5114760;28;20774;-65
2021/08/24 02:11:43;;;;;;;11.40;8.10;;;19.80;99.90;;;;;;5114814;28;20390;-64
2021/08/24 02:14:14;;;;;;;11.53;7.70;;;19.80;99.90;;;;;;5147707;27;20416;-64
2021/08/24 02:16:41;;;;;;;9.20;7.67;;;19.80;99.90;;;;;;5113202;28;20446;-64
2021/08/24 02:19:11;;;;;;;10.90;8.17;;;19.80;99.90;;;;;;5114580;27;20416;-65
2021/08/24 02:21:46;;;;;;;9.50;7.70;;;19.80;99.90;;;;;;5114353;27;20460;-64
2021/08/24 02:24:16;;;;;;;10.53;8.23;;;19.80;99.90;;;;;;5114284;28;20402;-64
2021/08/24 02:26:44;;;;;;;11.10;7.83;;;19.80;99.90;;;;;;5114611;28;20401;-64
2021/08/24 02:29:10;;;;;;;10.20;8.13;;;19.70;99.90;;;;;;5114436;28;20447;-64
2021/08/24 02:31:50;;;;;;;10.43;7.63;;;19.70;99.90;;;;;;5147348;27;20430;-64
2021/08/24 02:34:42;;;;;;;10.13;8.00;;;19.60;99.90;;;;;;5113118;28;20418;-64
2021/08/24 02:37:13;;;;;;;9.67;8.07;;;19.60;99.90;;;;;;5098030;28;20525;-66
2021/08/24 02:40:04;;;;;;;11.50;7.80;;;19.50;99.90;;;;;;5114229;28;20788;-64
2021/08/24 02:42:45;;;;;;;10.63;7.93;;;19.50;99.90;;;;;;5114657;28;20508;-64
2021/08/24 02:45:24;;;;;;;13.00;8.63;;;19.50;99.90;;;;;;5114207;28;20473;-66
2021/08/24 02:47:51;;;;;;;11.73;7.77;;;19.50;99.90;;;;;;5114669;28;20515;-64
2021/08/24 02:50:17;;;;;;;11.10;8.50;;;19.40;99.90;;;;;;5112895;28;20421;-64
2021/08/24 02:52:43;;;;;;;11.80;8.43;;;19.40;99.90;;;;;;5114505;28;20524;-65
2021/08/24 02:55:10;;;;;;;10.90;8.73;;;19.40;99.90;;;;;;5114099;28;20420;-64
2021/08/24 02:57:36;;;;;;;10.90;7.70;;;19.40;99.90;;;;;;5114154;28;20492;-64
2021/08/24 03:00:04;;;;;;;11.27;8.40;;;19.40;99.90;;;;;;5113880;28;20452;-66
2021/08/24 03:02:30;;;;;;;13.23;9.60;;;19.40;99.90;;;;;;5114243;28;20472;-64
2021/08/24 03:04:56;;;;;;;9.27;8.20;;;19.40;99.90;;;;;;5113976;28;20421;-64
2021/08/24 03:07:30;;;;;;;10.87;8.47;;;19.40;99.90;;;;;;5114104;28;20184;-65
2021/08/24 03:10:01;;;;;;;12.40;8.50;;;19.40;99.90;;;;;;5114038;28;20188;-65
2021/08/24 03:12:37;;;;;;;11.57;8.10;;;19.40;99.90;;;;;;5114253;28;20924;-65
2021/08/24 03:15:18;;;;;;;10.70;8.10;;;19.40;99.90;;;;;;5113966;28;20416;-64
2021/08/24 03:17:46;;;;;;;11.70;8.77;;;19.40;99.90;;;;;;5112762;28;20428;-66
2021/08/24 03:20:13;;;;;;;12.57;8.67;;;19.40;99.90;;;;;;5113509;28;20429;-65
2021/08/24 03:22:40;;;;;;;10.87;8.33;;;19.40;99.90;;;;;;5146832;27;20480;-64
2021/08/24 03:25:07;;;;;;;14.07;9.30;;;19.40;99.90;;;;;;5113564;28;20456;-65
2021/08/24 03:27:40;;;;;;;10.10;7.70;;;19.40;99.90;;;;;;5114318;28;20436;-64
2021/08/24 03:30:09;;;;;;;10.63;8.63;;;19.40;99.90;;;;;;5117762;28;20433;-64
2021/08/24 03:32:35;;;;;;;12.30;8.10;;;19.50;99.90;;;;;;5118075;28;20428;-65
2021/08/24 03:35:01;;;;;;;11.10;8.17;;;19.50;99.90;;;;;;5117688;28;20422;-64
2021/08/24 03:37:27;;;;;;;12.50;8.97;;;19.50;99.90;;;;;;5117892;28;20210;-66
2021/08/24 03:39:52;;;;;;;11.20;9.30;;;19.50;99.90;;;;;;5117574;27;20471;-64
2021/08/24 03:42:18;;;;;;;13.00;8.70;;;19.50;99.90;;;;;;5117546;28;20511;-64
2021/08/24 03:44:46;;;;;;;14.50;8.90;;;19.60;99.90;;;;;;5117535;28;20196;-64
2021/08/24 03:47:12;;;;;;;12.13;8.30;;;19.60;99.90;;;;;;5117648;28;20195;-64
2021/08/24 03:49:38;;;;;;;12.80;9.90;;;19.60;99.90;;;;;;5117530;28;20948;-66
2021/08/24 03:52:04;;;;;;;12.87;9.73;;;19.70;99.90;;;;;;5117501;28;20414;-65
2021/08/24 03:54:30;;;;;;;14.37;8.27;;;19.70;99.90;;;;;;5117475;28;20546;-64
2021/08/24 03:56:55;;;;;;;13.03;9.03;;;19.70;99.90;;;;;;5117449;27;20434;-64
2021/08/24 03:59:21;;;;;;;10.83;8.57;;;19.80;99.90;;;;;;5115520;28;20179;-64
2021/08/24 04:01:46;;;;;;;12.37;8.37;;;19.80;99.90;;;;;;5116886;28;20221;-65
2021/08/24 04:04:12;;;;;;;11.97;8.30;;;19.80;99.90;;;;;;5117080;28;20169;-64
2021/08/24 04:06:38;;;;;;;12.17;8.60;;;19.80;99.90;;;;;;5116427;28;20572;-64
2021/08/24 04:09:03;;;;;;;18.40;12.93;;;19.90;99.90;;;;;;5117153;28;20196;-66
2021/08/24 04:11:29;;;;;;;21.60;14.90;;;19.90;99.90;;;;;;5116902;28;20188;-64
2021/08/24 04:13:55;;;;;;;11.00;8.93;;;19.90;99.90;;;;;;5116953;28;20177;-64
2021/08/24 04:16:21;;;;;;;13.23;8.73;;;19.90;99.90;;;;;;5116809;28;20615;-64
2021/08/24 04:18:46;;;;;;;10.87;8.90;;;19.90;99.90;;;;;;5115001;28;20416;-65
2021/08/24 04:21:15;;;;;;;10.53;8.33;;;19.90;99.90;;;;;;5115228;28;20211;-65
2021/08/24 04:23:42;;;;;;;10.17;8.50;;;19.90;99.90;;;;;;5116432;28;20196;-65
2021/08/24 04:26:09;;;;;;;10.17;9.07;;;20.00;99.90;;;;;;5116713;28;20469;-65
2021/08/24 04:28:35;;;;;;;10.60;8.63;;;20.00;99.90;;;;;;5116763;27;20429;-64
2021/08/24 04:31:04;;;;;;;13.17;8.40;;;20.00;99.90;;;;;;5116417;28;20421;-64
2021/08/24 04:33:30;;;;;;;14.90;9.70;;;20.00;99.90;;;;;;5116140;28;20521;-65
2021/08/24 04:35:55;;;;;;;12.60;8.70;;;20.00;99.90;;;;;;5115474;28;20849;-65
2021/08/24 04:38:22;;;;;;;10.13;7.73;;;20.00;99.90;;;;;;5116779;28;20176;-65
2021/08/24 04:40:49;;;;;;;10.10;8.47;;;20.00;99.90;;;;;;5114874;27;20196;-64
2021/08/24 04:43:15;;;;;;;13.10;9.63;;;20.00;99.90;;;;;;5116736;28;20416;-64
2021/08/24 04:45:41;;;;;;;10.20;8.00;;;20.00;99.90;;;;;;5115819;28;20806;-65
2021/08/24 04:48:07;;;;;;;12.30;8.83;;;20.00;99.90;;;;;;5115259;28;20432;-66
2021/08/24 04:50:32;;;;;;;10.37;8.80;;;20.10;99.90;;;;;;5116107;28;20190;-65
2021/08/24 04:52:58;;;;;;;11.90;8.33;;;20.10;99.90;;;;;;5115087;28;20854;-64
2021/08/24 04:55:23;;;;;;;11.30;8.63;;;20.10;99.90;;;;;;5115078;28;20602;-66
2021/08/24 04:57:49;;;;;;;13.67;8.73;;;20.10;99.90;;;;;;5116427;28;20232;-65
2021/08/24 05:00:15;;;;;;;10.70;8.00;;;20.10;99.90;;;;;;5115060;28;20192;-64
2021/08/24 05:02:41;;;;;;;12.20;8.67;;;20.10;99.90;;;;;;5111711;28;20261;-65
2021/08/24 05:05:07;;;;;;;12.67;8.90;;;20.10;99.90;;;;;;5112965;28;20432;-64
2021/08/24 05:07:33;;;;;;;10.57;8.70;;;20.00;99.90;;;;;;5113606;28;20233;-64
2021/08/24 05:09:59;;;;;;;11.70;8.90;;;20.00;99.90;;;;;;5112104;28;20436;-64
2021/08/24 05:12:24;;;;;;;11.90;9.20;;;20.00;99.90;;;;;;5112332;28;20656;-65
2021/08/24 05:14:50;;;;;;;11.50;9.50;;;20.00;99.90;;;;;;5114437;28;20693;-64
2021/08/24 05:17:16;;;;;;;11.70;8.73;;;19.90;99.90;;;;;;5114372;28;20205;-64
2021/08/24 05:19:41;;;;;;;11.57;8.40;;;19.90;99.90;;;;;;5114970;28;20212;-64
2021/08/24 05:22:07;;;;;;;10.70;8.00;;;19.90;99.90;;;;;;5114781;28;20681;-64
2021/08/24 05:24:36;;;;;;;9.67;8.53;;;19.90;99.90;;;;;;5115062;27;20257;-65
2021/08/24 05:27:04;;;;;;;9.57;8.13;;;19.90;99.90;;;;;;5115196;28;20200;-65
2021/08/24 05:29:29;;;;;;;9.97;8.23;;;19.80;99.90;;;;;;5114972;28;20816;-64
2021/08/24 05:31:55;;;;;;;11.73;8.90;;;19.80;99.90;;;;;;5114666;28;20427;-66
2021/08/24 05:34:21;;;;;;;9.80;8.00;;;19.80;99.90;;;;;;5113285;28;20190;-65
2021/08/24 05:36:46;;;;;;;11.57;8.90;;;19.80;99.90;;;;;;5114863;27;20619;-65
2021/08/24 05:39:12;;;;;;;11.30;8.40;;;19.80;99.90;;;;;;5114662;28;20178;-65
2021/08/24 05:41:39;;;;;;;10.27;7.73;;;19.80;99.90;;;;;;5113794;28;20208;-66
2021/08/24 05:44:06;;;;;;;9.77;7.20;;;19.80;99.90;;;;;;5113212;28;20508;-66
2021/08/24 05:46:31;;;;;;;11.60;7.90;;;19.80;99.90;;;;;;5114360;28;20429;-64
2021/08/24 05:48:57;;;;;;;9.37;7.40;;;19.90;99.90;;;;;;5114213;28;20418;-66
2021/08/24 05:51:24;;;;;;;11.30;7.20;;;19.90;99.90;;;;;;5108449;28;20645;-66
2021/08/24 05:53:50;;;;;;;10.20;6.80;;;19.90;99.90;;;;;;5110402;28;20269;-64
2021/08/24 05:56:18;;;;;;;10.40;8.00;;;19.90;99.90;;;;;;5114016;28;20437;-64
2021/08/24 05:58:44;;;;;;;11.30;8.30;;;19.90;99.90;;;;;;5115094;28;20418;-66
2021/08/24 06:01:20;;;;;;;10.20;8.40;;;19.90;99.90;;;;;;5110536;28;20469;-64
2021/08/24 06:03:46;;;;;;;9.20;7.40;;;20.00;99.90;;;;;;5109787;28;20766;-65
2021/08/24 06:06:24;;;;;;;8.77;7.43;;;20.00;99.90;;;;;;5112513;28;20436;-66
2021/08/24 06:08:50;;;;;;;11.93;6.60;;;20.00;99.90;;;;;;5094516;28;20188;-66
2021/08/24 06:11:31;;;;;;;11.10;7.50;;;20.10;99.90;;;;;;5105088;28;20498;-64
2021/08/24 06:13:58;;;;;;;7.10;6.40;;;20.10;99.90;;;;;;5127678;27;20414;-65
2021/08/24 06:16:24;;;;;;;7.40;6.70;;;20.10;99.90;;;;;;5146655;27;20422;-65
2021/08/24 06:18:50;;;;;;;6.97;6.03;;;20.20;99.90;;;;;;5114105;28;20426;-65
2021/08/24 06:21:17;;;;;;;8.97;7.13;;;20.20;99.90;;;;;;5145724;27;20745;-65
2021/08/24 06:23:43;;;;;;;7.17;6.10;;;20.30;99.90;;;;;;5112894;28;20935;-65
2021/08/24 06:26:09;;;;;;;7.30;6.43;;;20.30;99.90;;;;;;5145169;27;20471;-65
2021/08/24 06:28:35;;;;;;;7.63;6.60;;;20.40;99.90;;;;;;5112290;28;20421;-65
2021/08/24 06:31:01;;;;;;;7.73;6.17;;;20.40;99.90;;;;;;5111747;28;20926;-65
2021/08/24 06:33:30;;;;;;;7.07;6.07;;;20.50;99.90;;;;;;5108136;28;20443;-65
2021/08/24 06:35:56;;;;;;;8.00;5.73;;;20.50;99.90;;;;;;5132593;27;20296;-67
2021/08/24 06:38:21;;;;;;;7.83;6.53;;;20.50;99.90;;;;;;5111781;28;20564;-65
2021/08/24 06:40:47;;;;;;;7.73;6.10;;;20.60;99.90;;;;;;5110567;28;20196;-65
2021/08/24 06:43:15;;;;;;;8.47;6.27;;;20.60;99.90;;;;;;5099423;28;20192;-65
2021/08/24 06:45:41;;;;;;;8.43;7.13;;;20.70;99.90;;;;;;5109228;28;20475;-65
2021/08/24 06:48:07;;;;;;;8.20;6.60;;;20.70;99.90;;;;;;5107963;28;20450;-66
2021/08/24 06:50:33;;;;;;;7.30;6.13;;;20.80;99.90;;;;;;5112949;28;20207;-66
2021/08/24 06:53:00;;;;;;;6.87;5.87;;;20.80;99.90;;;;;;5108149;28;20188;-65
2021/08/24 06:55:30;;;;;;;8.97;5.90;;;20.90;99.90;;;;;;5098427;28;20451;-65
2021/08/24 06:57:56;;;;;;;7.17;6.43;;;20.90;99.90;;;;;;5096210;28;20454;-65
2021/08/24 07:00:23;;;;;;;8.00;6.50;;;21.00;99.90;;;;;;5101494;28;20442;-67
2021/08/24 07:02:49;;;;;;;6.50;5.53;;;21.00;99.90;;;;;;5109872;28;20537;-65
2021/08/24 07:05:17;;;;;;;8.00;6.33;;;21.00;99.90;;;;;;5106751;28;20467;-65
2021/08/24 07:07:43;;;;;;;6.00;5.33;;;21.10;99.90;;;;;;5109345;28;20182;-65
2021/08/24 07:10:11;;;;;;;7.73;6.00;;;21.20;99.90;;;;;;5136747;27;20501;-66
2021/08/24 07:12:37;;;;;;;8.73;5.80;;;21.20;99.90;;;;;;5136935;27;20182;-66
2021/08/24 07:15:04;;;;;;;6.60;5.93;;;21.30;99.90;;;;;;5112097;28;20554;-66
2021/08/24 07:17:30;;;;;;;6.80;5.70;;;21.30;99.90;;;;;;5134524;27;21036;-66
2021/08/24 07:19:56;;;;;;;6.30;5.40;;;21.40;99.90;;;;;;5133186;27;20545;-67
2021/08/24 07:22:21;;;;;;;7.67;5.43;;;21.40;99.90;;;;;;5108673;28;20219;-67
2021/08/24 07:24:47;;;;;;;5.73;5.13;;;21.50;99.90;;;;;;5107241;28;20264;-66
2021/08/24 07:27:13;;;;;;;6.17;5.57;;;21.50;99.90;;;;;;5103276;28;20317;-65
2021/08/24 07:29:39;;;;;;;6.23;5.00;;;21.60;99.90;;;;;;5133197;27;20224;-67
2021/08/24 07:32:05;;;;;;;5.37;4.87;;;21.70;99.90;;;;;;5105289;28;20183;-67
2021/08/24 07:34:31;;;;;;;7.43;4.67;;;21.70;99.90;;;;;;5108737;28;20221;-65
2021/08/24 07:36:58;;;;;;;5.47;4.83;;;21.80;99.90;;;;;;5136274;27;20464;-66
2021/08/24 07:39:23;;;;;;;5.47;4.80;;;21.80;99.90;;;;;;5114493;28;20416;-67
2021/08/24 07:41:49;;;;;;;6.80;5.70;;;21.90;99.90;;;;;;5111011;28;20572;-67
2021/08/24 07:44:15;;;;;;;9.63;5.87;;;22.00;99.90;;;;;;5108249;28;20219;-67
2021/08/24 07:46:40;;;;;;;6.10;5.47;;;22.00;99.90;;;;;;5112537;28;20633;-67
2021/08/24 07:49:06;;;;;;;7.63;5.20;;;22.10;99.90;;;;;;5099320;28;20172;-68
2021/08/24 07:51:32;;;;;;;7.10;4.80;;;22.20;99.90;;;;;;5136105;27;20236;-67
2021/08/24 07:54:00;;;;;;;6.23;5.50;;;22.20;99.90;;;;;;5113520;28;20202;-68
2021/08/24 07:56:26;;;;;;;5.93;5.00;;;22.20;99.90;;;;;;5102279;28;20188;-67
2021/08/24 07:58:51;;;;;;;6.23;4.23;;;22.30;99.90;;;;;;5100351;28;20476;-67
2021/08/24 08:01:17;;;;;;;4.57;4.13;;;22.40;99.90;;;;;;5107547;28;20546;-67
2021/08/24 08:03:43;;;;;;;5.67;4.00;;;22.40;99.90;;;;;;5099472;28;20191;-67
2021/08/24 08:06:09;;;;;;;4.50;3.80;;;22.40;99.90;;;;;;5109050;28;20440;-68
2021/08/24 08:08:34;;;;;;;5.33;3.87;;;22.50;99.90;;;;;;5107058;28;20210;-67
2021/08/24 08:11:00;;;;;;;4.47;4.10;;;22.60;99.90;;;;;;5104692;28;20208;-66
2021/08/24 08:13:28;;;;;;;5.77;4.80;;;22.60;99.90;;;;;;5106253;28;20187;-67
2021/08/24 08:15:54;;;;;;;5.13;3.80;;;22.70;99.90;;;;;;5106274;28;20298;-65
2021/08/24 08:18:20;;;;;;;6.13;3.87;;;22.80;99.90;;;;;;5111603;28;20475;-65
2021/08/24 08:20:47;;;;;;;3.80;3.40;;;22.80;99.90;;;;;;5106369;28;20523;-65
2021/08/24 08:23:15;;;;;;;7.13;4.07;;;22.90;99.90;;;;;;5104669;28;20538;-66
2021/08/24 08:25:41;;;;;;;4.10;3.70;;;23.00;99.90;;;;;;5130099;27;20500;-65
2021/08/24 08:28:07;;;;;;;3.73;3.33;;;23.10;99.90;;;;;;5115146;28;20813;-66
2021/08/24 08:30:34;;;;;;;3.50;3.27;;;23.20;99.90;;;;;;5111418;28;20432;-67
2021/08/24 08:33:02;;;;;;;3.90;3.57;;;23.20;99.90;;;;;;5106688;28;20440;-64
2021/08/24 08:35:29;;;;;;;4.27;3.67;;;23.30;99.90;;;;;;5111813;28;20432;-65
2021/08/24 08:37:55;;;;;;;4.47;3.67;;;23.30;99.90;;;;;;5109527;28;20428;-65
2021/08/24 08:40:32;;;;;;;3.30;3.00;;;23.40;99.90;;;;;;5098390;28;20458;-66
2021/08/24 08:43:07;;;;;;;3.50;3.20;;;23.50;99.90;;;;;;5111058;28;20562;-65
2021/08/24 08:45:45;;;;;;;3.50;3.20;;;23.60;99.90;;;;;;5111524;28;21001;-65
2021/08/24 08:49:00;;;;;;;4.83;3.23;;;23.70;99.90;;;;;;5112358;28;20893;-65
2021/08/24 08:52:02;;;;;;;3.50;3.20;;;23.90;99.90;;;;;;5128438;27;20460;-66
2021/08/24 08:54:45;;;;;;;5.00;3.20;;;24.00;99.90;;;;;;5089027;27;20500;-65
2021/08/24 08:57:19;;;;;;;3.80;3.50;;;24.20;99.90;;;;;;5148059;27;20466;-65
2021/08/24 08:59:49;;;;;;;3.40;3.20;;;24.80;99.90;;;;;;5102555;27;20515;-65
2021/08/24 09:02:34;;;;;;;3.70;3.40;;;25.40;99.90;;;;;;5108957;28;20513;-65
2021/08/24 09:05:02;;;;;;;3.93;3.57;;;26.00;99.90;;;;;;5100955;28;20521;-66
2021/08/24 09:07:30;;;;;;;3.70;3.40;;;26.20;99.90;;;;;;5110765;28;20760;-66
2021/08/24 09:09:56;;;;;;;4.13;3.73;;;26.10;99.90;;;;;;5110456;28;20785;-65
2021/08/24 09:12:24;;;;;;;5.70;3.60;;;26.00;99.90;;;;;;5107552;28;20445;-65
2021/08/24 09:14:53;;;;;;;4.33;3.37;;;25.70;99.90;;;;;;5102465;28;20225;-65
2021/08/24 09:17:27;;;;;;;4.90;3.13;;;25.60;99.90;;;;;;5091816;28;20431;-65
2021/08/24 09:20:23;;;;;;;3.77;3.47;;;25.40;99.90;;;;;;5110899;28;20444;-66
2021/08/24 09:22:49;;;;;;;3.83;3.50;;;25.30;99.90;;;;;;5094913;28;20879;-65
2021/08/24 09:25:19;;;;;;;3.37;3.07;;;25.20;99.90;;;;;;5100663;28;20815;-65
2021/08/24 09:27:58;;;;;;;4.60;3.57;;;25.10;99.90;;;;;;5103660;28;20943;-66
2021/08/24 09:30:24;;;;;;;3.10;2.60;;;25.00;99.90;;;;;;5111916;28;20450;-66
2021/08/24 09:32:51;;;;;;;3.10;2.53;;;25.00;99.90;;;;;;5112541;28;20430;-66
2021/08/24 09:35:38;;;;;;;2.93;2.67;;;25.00;99.90;;;;;;5110670;28;20470;-65
2021/08/24 09:38:28;;;;;;;3.73;2.70;;;25.00;99.90;;;;;;5105495;28;20449;-65
2021/08/24 09:40:58;;;;;;;2.37;2.00;;;25.00;99.90;;;;;;5104383;28;20536;-66
2021/08/24 09:43:31;;;;;;;2.70;2.50;;;25.00;99.90;;;;;;5093596;28;21005;-65
2021/08/24 09:46:24;;;;;;;3.10;2.90;;;24.90;99.90;;;;;;5109232;28;20449;-66
2021/08/24 09:48:58;;;;;;;3.40;3.10;;;24.90;99.90;;;;;;5136812;27;20807;-65
2021/08/24 09:51:36;;;;;;;3.27;2.97;;;24.80;99.90;;;;;;5105185;28;20480;-65
2021/08/24 09:54:22;;;;;;;3.07;2.77;;;24.80;99.90;;;;;;5103619;28;20490;-65
2021/08/24 09:56:54;;;;;;;3.70;2.73;;;24.80;99.90;;;;;;5094637;28;20752;-66
2021/08/24 09:59:35;;;;;;;2.93;2.67;;;24.80;99.90;;;;;;5106542;28;20446;-65
2021/08/24 10:02:03;;;;;;;3.23;2.93;;;24.80;99.90;;;;;;5108643;28;20857;-65
2021/08/24 10:04:29;;;;;;;3.80;2.67;;;24.80;99.90;;;;;;5112730;28;20412;-65
2021/08/24 10:07:04;;;;;;;3.00;2.70;;;24.80;99.90;;;;;;5143997;27;20781;-65
2021/08/24 10:09:36;;;;;;;3.30;3.00;;;24.80;99.90;;;;;;5108205;28;20173;-65
2021/08/24 10:12:20;;;;;;;2.80;2.60;;;24.80;99.90;;;;;;5103407;28;20432;-66
2021/08/24 10:14:47;;;;;;;3.97;2.70;;;24.90;99.90;;;;;;5131314;27;20531;-65
2021/08/24 10:17:26;;;;;;;3.40;3.10;;;24.90;99.90;;;;;;5105876;28;20428;-66
2021/08/24 10:19:52;;;;;;;3.20;2.90;;;25.00;99.90;;;;;;5099401;28;20448;-66
2021/08/24 10:22:29;;;;;;;2.67;2.47;;;25.00;99.90;;;;;;5103188;28;20533;-66
2021/08/24 10:25:05;;;;;;;3.00;2.70;;;25.00;99.90;;;;;;5103631;28;20542;-66
2021/08/24 10:27:42;;;;;;;2.57;2.20;;;25.00;99.90;;;;;;5103439;28;20935;-66
2021/08/24 10:30:15;;;;;;;3.17;2.53;;;25.10;99.90;;;;;;5134891;27;20456;-65
2021/08/24 10:32:53;;;;;;;2.53;2.33;;;25.10;99.90;;;;;;5110034;28;20438;-65
2021/08/24 10:35:28;;;;;;;2.83;2.60;;;25.10;99.90;;;;;;5104966;28;20808;-65
2021/08/24 10:37:54;;;;;;;3.07;2.80;;;25.10;99.90;;;;;;5104416;28;21290;-65
2021/08/24 10:40:42;;;;;;;4.10;2.87;;;25.20;99.90;;;;;;5106559;27;20876;-66
2021/08/24 10:43:11;;;;;;;2.80;2.43;;;25.20;99.90;;;;;;5105039;27;20895;-66
2021/08/24 10:45:43;;;;;;;2.70;2.50;;;25.20;99.90;;;;;;5106952;28;20476;-66
2021/08/24 10:48:17;;;;;;;3.43;2.83;;;25.20;99.90;;;;;;5129719;27;20444;-66
2021/08/24 10:51:17;;;;;;;3.07;2.47;;;25.20;99.90;;;;;;5105845;28;20915;-65
2021/08/24 10:54:21;;;;;;;3.53;3.20;;;25.20;99.90;;;;;;5123028;27;20448;-65
2021/08/24 10:57:16;;;;;;;2.70;2.50;;;25.20;99.90;;;;;;5098796;27;20522;-67
2021/08/24 10:59:47;;;;;;;3.00;2.80;;;25.10;99.90;;;;;;5102100;28;20454;-66
2021/08/24 11:02:22;;;;;;;2.90;2.60;;;25.10;99.90;;;;;;5099140;28;20479;-66
2021/08/24 11:05:06;;;;;;;2.97;2.60;;;25.10;99.90;;;;;;5104229;28;20460;-66
2021/08/24 11:07:38;;;;;;;2.50;2.30;;;25.10;99.90;;;;;;5098696;28;20770;-66
2021/08/24 11:10:28;;;;;;;3.00;2.33;;;25.10;99.90;;;;;;5102713;28;20447;-66
2021/08/24 11:13:14;;;;;;;2.60;2.40;;;25.00;99.90;;;;;;5108748;28;20436;-66
2021/08/24 11:16:01;;;;;;;2.40;2.10;;;25.00;99.90;;;;;;5100243;28;20558;-66
2021/08/24 11:18:47;;;;;;;2.23;2.03;;;25.10;99.90;;;;;;5102025;28;20441;-66
2021/08/24 11:21:26;;;;;;;2.37;2.03;;;25.10;99.90;;;;;;5108011;28;20508;-67
2021/08/24 11:24:23;;;;;;;2.23;2.10;;;25.20;99.90;;;;;;5107923;28;20448;-66
2021/08/24 11:27:16;;;;;;;2.10;1.97;;;25.20;99.90;;;;;;5107136;28;20528;-66
2021/08/24 11:30:03;;;;;;;2.67;2.00;;;25.20;99.90;;;;;;5107606;28;20495;-66
2021/08/24 11:32:38;;;;;;;2.73;2.53;;;25.30;99.90;;;;;;5099465;28;20803;-66
2021/08/24 11:35:33;;;;;;;2.43;2.23;;;25.30;99.90;;;;;;5105222;28;20468;-65
2021/08/24 11:38:05;;;;;;;2.47;2.27;;;25.30;99.90;;;;;;5095744;28;20445;-66
2021/08/24 11:40:54;;;;;;;3.33;2.33;;;25.30;99.90;;;;;;5103887;28;20449;-66
2021/08/24 11:43:42;;;;;;;2.13;1.93;;;25.30;99.90;;;;;;5095097;28;20477;-67
2021/08/24 11:46:17;;;;;;;2.30;2.07;;;25.30;99.90;;;;;;5108259;28;20527;-66
2021/08/24 11:48:46;;;;;;;2.17;2.00;;;25.30;99.90;;;;;;5109645;28;20466;-66
2021/08/24 11:51:15;;;;;;;2.20;2.00;;;25.30;99.90;;;;;;5114093;28;20438;-66
2021/08/24 11:53:40;;;;;;;2.33;2.07;;;25.30;99.90;;;;;;5114120;28;20421;-66
2021/08/24 11:56:10;;;;;;;1.97;1.87;;;25.30;99.90;;;;;;5116836;28;20946;-66
2021/08/24 11:58:53;;;;;;;1.73;1.63;;;25.40;99.90;;;;;;5116966;28;20186;-65
2021/08/24 12:01:22;;;;;;;1.50;1.40;;;25.50;99.90;;;;;;5116860;28;20534;-66
2021/08/24 12:03:52;;;;;;;1.40;1.30;;;25.50;99.90;;;;;;5115025;27;20488;-66
2021/08/24 12:06:36;;;;;;;1.97;1.87;;;25.60;99.90;;;;;;5114130;28;20823;-66
2021/08/24 12:09:02;;;;;;;1.83;1.73;;;25.60;99.90;;;;;;5116919;27;20403;-66
2021/08/24 12:11:49;;;;;;;2.13;1.93;;;25.60;99.90;;;;;;5116624;28;20442;-66
2021/08/24 12:14:35;;;;;;;1.50;1.40;;;25.60;99.90;;;;;;5115232;28;20254;-66
2021/08/24 12:17:27;;;;;;;1.90;1.80;;;25.60;99.90;;;;;;5110747;28;20438;-66
2021/08/24 12:20:08;;;;;;;1.60;1.33;;;25.60;99.90;;;;;;5110574;28;20956;-66
2021/08/24 12:22:52;;;;;;;1.83;1.30;;;25.50;99.90;;;;;;5108626;28;20514;-66
2021/08/24 12:25:41;;;;;;;1.57;1.10;;;25.50;99.90;;;;;;5095177;28;20468;-66
2021/08/24 12:28:14;;;;;;;1.00;0.90;;;25.50;99.90;;;;;;5126340;27;20766;-66
2021/08/24 12:30:58;;;;;;;1.10;1.10;;;25.50;99.90;;;;;;5107140;28;20491;-67
2021/08/24 12:33:39;;;;;;;1.53;1.40;;;25.50;99.90;;;;;;5105290;28;20430;-66
2021/08/24 12:36:45;;;;;;;1.70;1.60;;;25.60;99.90;;;;;;5112198;28;20798;-66
2021/08/24 12:39:35;;;;;;;1.90;1.80;;;25.60;99.90;;;;;;5097573;28;20535;-66
2021/08/24 12:42:15;;;;;;;2.40;2.20;;;25.60;99.90;;;;;;5143336;27;20888;-65
2021/08/24 12:44:46;;;;;;;1.60;1.33;;;25.60;99.90;;;;;;5113535;28;20970;-66
2021/08/24 12:47:32;;;;;;;1.80;1.70;;;25.60;99.90;;;;;;5109212;28;20435;-66
2021/08/24 12:50:18;;;;;;;1.50;1.40;;;25.60;99.90;;;;;;5112423;28;20450;-66
2021/08/24 12:52:48;;;;;;;1.63;1.50;;;25.60;99.90;;;;;;5113787;28;20486;-66
2021/08/24 12:55:15;;;;;;;1.47;1.37;;;25.60;99.90;;;;;;5110977;28;20457;-67
2021/08/24 12:57:47;;;;;;;1.67;1.57;;;25.60;99.90;;;;;;5136716;27;20449;-66
2021/08/24 13:00:28;;;;;;;1.10;1.00;;;25.60;99.90;;;;;;5105123;28;20439;-67
2021/08/24 13:02:58;;;;;;;1.50;1.40;;;25.60;99.90;;;;;;5098482;27;20523;-66
2021/08/24 13:05:28;;;;;;;1.97;1.50;;;25.60;99.90;;;;;;5111220;28;20451;-66
2021/08/24 13:08:21;;;;;;;1.30;1.20;;;25.60;99.90;;;;;;5105086;28;20465;-67